Time;durP1;ratioP1;P1;durP2;ratioP2;P2;SDS_P1;SDS_P2;PMS_P1;PMS_P2;Temp;Humidity;BMP_temperature;BMP_pressure;BME280_temperature;BME280_humidity;BME280_pressure;Samples;Min_cycle;Max_cycle;Signal;HPM_P1;HPM_P2
2021/12/13 17:03:53;;;;;;;67.13;26.00;;;;;;;;;;5107394;27;20961;-66
2021/12/13 17:06:22;;;;;;;66.53;28.27;;;;;;;;;;5097831;28;20059;-69
2021/12/13 17:08:58;;;;;;;73.85;29.13;;;;;;;;;;5097107;28;20048;-68
2021/12/13 17:11:26;;;;;;;59.28;27.33;;;;;;;;;;5088011;28;20025;-68
2021/12/13 17:13:54;;;;;;;67.93;31.25;;;;;;;;;;5085332;28;20032;-68
2021/12/13 17:16:20;;;;;;;78.13;33.72;;;;;;;;;;5093043;28;20436;-68
2021/12/13 17:18:48;;;;;;;73.93;29.92;;;;;;;;;;5091784;28;20032;-68
2021/12/13 17:21:15;;;;;;;70.45;31.95;;;;;;;;;;5103661;28;20114;-68
2021/12/13 17:23:51;;;;;;;67.38;30.02;;;;;;;;;;5089034;28;20438;-68
2021/12/13 17:26:26;;;;;;;78.10;32.97;;;;;;;;;;5087895;28;20024;-68
2021/12/13 17:29:01;;;;;;;74.45;35.75;;;;;;;;;;5086368;28;20331;-69
2021/12/13 17:31:44;;;;;;;71.65;36.70;;;;;;;;;;5087665;28;20031;-68
2021/12/13 17:34:31;;;;;;;57.97;31.75;;;;;;;;;;5095514;28;20263;-69
2021/12/13 17:36:58;;;;;;;64.88;33.17;;;;;;;;;;5089901;28;20099;-68
2021/12/13 17:39:25;;;;;;;78.63;36.30;;;;;;;;;;5093220;28;20113;-69
2021/12/13 17:41:52;;;;;;;89.25;38.90;;;;;;;;;;5093575;28;20036;-67
2021/12/13 17:44:18;;;;;;;68.50;34.28;;;;;;;;;;5092879;28;20111;-67
2021/12/13 17:46:47;;;;;;;50.75;22.48;;;;;;;;;;5096573;28;20024;-68
2021/12/13 17:49:13;;;;;;;78.82;29.55;;;;;;;;;;5095557;28;20070;-67
2021/12/13 17:51:49;;;;;;;49.45;21.08;;;;;;;;;;5095076;28;20024;-67
2021/12/13 17:54:17;;;;;;;48.67;19.70;;;;;;;;;;5096894;28;20027;-68
2021/12/13 17:56:44;;;;;;;40.30;17.10;;;;;;;;;;5096348;28;20056;-68
2021/12/13 17:59:13;;;;;;;39.15;18.35;;;;;;;;;;5077504;28;20519;-68
2021/12/13 18:01:47;;;;;;;45.92;19.98;;;;;;;;;;5094818;28;20046;-67
2021/12/13 18:04:18;;;;;;;187.38;99.22;;;;;;;;;;5092972;28;20052;-68
2021/12/13 18:06:45;;;;;;;261.75;137.38;;;;;;;;;;5087592;28;20038;-68
2021/12/13 18:09:20;;;;;;;141.23;88.07;;;;;;;;;;5095662;28;20027;-67
2021/12/13 18:11:49;;;;;;;104.35;48.33;;;;;;;;;;5094808;28;20439;-67
2021/12/13 18:14:34;;;;;;;90.80;42.42;;;;;;;;;;5083536;28;20031;-67
2021/12/13 18:17:01;;;;;;;38.88;17.05;;;;;;;;;;5083970;28;20517;-68
2021/12/13 18:19:34;;;;;;;60.45;26.65;;;;;;;;;;5076655;28;20043;-67
2021/12/13 18:22:01;;;;;;;61.38;30.02;;;;;;;;;;5079587;28;20024;-67
2021/12/13 18:24:27;;;;;;;68.63;33.13;;;;;;;;;;5073101;28;20540;-68
2021/12/13 18:26:57;;;;;;;68.95;33.42;;;;;;;;;;5073651;28;20112;-67
2021/12/13 18:29:23;;;;;;;136.13;55.00;;;;;;;;;;5076980;28;20562;-67
2021/12/13 18:31:50;;;;;;;145.20;64.57;;;;;;;;;;5080946;28;20362;-68
2021/12/13 18:34:22;;;;;;;235.27;86.55;;;;;;;;;;5066575;28;20036;-68
2021/12/13 18:36:52;;;;;;;167.85;64.18;;;;;;;;;;5073053;28;20452;-67
2021/12/13 18:39:20;;;;;;;162.88;62.25;;;;;;;;;;5072810;28;20130;-67
2021/12/13 18:41:58;;;;;;;147.93;60.55;;;;;;;;;;5072878;28;20032;-68
2021/12/13 18:44:38;;;;;;;146.50;62.90;;;;;;;;;;5073015;28;20024;-68
2021/12/13 18:47:04;;;;;;;139.55;56.42;;;;;;;;;;5073090;28;20025;-67
2021/12/13 18:49:39;;;;;;;127.07;55.42;;;;;;;;;;5072732;28;20028;-68
2021/12/13 18:52:17;;;;;;;140.57;59.30;;;;;;;;;;5071586;28;20442;-68
2021/12/13 18:54:51;;;;;;;149.63;71.00;;;;;;;;;;5072727;28;20058;-68
2021/12/13 18:57:18;;;;;;;140.43;61.72;;;;;;;;;;5055325;28;20052;-68
2021/12/13 18:59:56;;;;;;;170.95;74.28;;;;;;;;;;5083842;28;20051;-68
2021/12/13 19:02:28;;;;;;;234.07;93.88;;;;;;;;;;5077804;28;20395;-68
2021/12/13 19:04:58;;;;;;;261.95;98.72;;;;;;;;;;5092452;28;20067;-68
2021/12/13 19:07:29;;;;;;;252.90;94.32;;;;;;;;;;5089025;28;20035;-68
2021/12/13 19:09:55;;;;;;;226.23;87.45;;;;;;;;;;5083637;28;20032;-68
2021/12/13 19:12:24;;;;;;;196.23;79.57;;;;;;;;;;5068671;28;20111;-70
2021/12/13 19:14:57;;;;;;;181.57;75.05;;;;;;;;;;5065330;28;20047;-68
2021/12/13 19:17:31;;;;;;;159.63;69.10;;;;;;;;;;5082197;28;20067;-67
2021/12/13 19:20:20;;;;;;;151.63;73.45;;;;;;;;;;5066892;28;20037;-67
2021/12/13 19:22:49;;;;;;;158.23;69.25;;;;;;;;;;5055013;28;20075;-66
2021/12/13 19:25:17;;;;;;;204.68;71.00;;;;;;;;;;5056680;28;20442;-66
2021/12/13 19:27:47;;;;;;;180.25;71.78;;;;;;;;;;5062710;28;20033;-66
2021/12/13 19:30:19;;;;;;;221.25;81.38;;;;;;;;;;5055916;28;20033;-66
2021/12/13 19:32:49;;;;;;;241.52;84.72;;;;;;;;;;5064742;28;20537;-66
2021/12/13 19:35:23;;;;;;;339.02;92.38;;;;;;;;;;5073582;28;20029;-66
2021/12/13 19:37:51;;;;;;;377.77;92.68;;;;;;;;;;5059042;28;20044;-66
2021/12/13 19:40:36;;;;;;;283.20;88.32;;;;;;;;;;5059594;28;20081;-66
2021/12/13 19:43:07;;;;;;;190.38;65.68;;;;;;;;;;5073548;28;20043;-66
2021/12/13 19:45:52;;;;;;;205.65;64.45;;;;;;;;;;5071022;28;20024;-66
2021/12/13 19:48:24;;;;;;;253.43;68.78;;;;;;;;;;5061214;28;20057;-66
2021/12/13 19:50:57;;;;;;;166.32;59.47;;;;;;;;;;5068222;28;20024;-65
2021/12/13 19:53:24;;;;;;;;;;;;;;;;;;5082114;28;20075;-65
2021/12/13 19:56:00;;;;;;;149.75;62.13;;;;;;;;;;5069491;28;19912;-64
2021/12/13 19:58:29;;;;;;;168.65;73.57;;;;;;;;;;5071076;28;20364;-66
2021/12/13 20:01:04;;;;;;;181.93;79.30;;;;;;;;;;5071262;28;20475;-64
2021/12/13 20:03:36;;;;;;;137.20;64.78;;;;;;;;;;5084715;28;20052;-64
2021/12/13 20:06:06;;;;;;;140.73;67.15;;;;;;;;;;5087814;28;20147;-64
2021/12/13 20:08:37;;;;;;;144.93;63.05;;;;;;;;;;5061826;28;20017;-64
2021/12/13 20:11:08;;;;;;;175.48;73.45;;;;;;;;;;5057979;28;20512;-65
2021/12/13 20:13:42;;;;;;;171.82;76.72;;;;;;;;;;5064536;28;20491;-65
2021/12/13 20:16:10;;;;;;;181.68;80.88;;;;;;;;;;5060314;28;20029;-64
2021/12/13 20:18:36;;;;;;;181.68;82.15;;;;;;;;;;5063514;28;20038;-66
2021/12/13 20:21:04;;;;;;;208.50;85.38;;;;;;;;;;5062362;28;20037;-66
2021/12/13 20:23:38;;;;;;;200.20;84.55;;;;;;;;;;5064796;28;20032;-65
2021/12/13 20:26:06;;;;;;;263.52;92.53;;;;;;;;;;5066150;28;20107;-65
2021/12/13 20:28:34;;;;;;;236.57;83.65;;;;;;;;;;5059150;28;20024;-66
2021/12/13 20:31:06;;;;;;;249.80;84.07;;;;;;;;;;5072989;28;20025;-65
2021/12/13 20:33:32;;;;;;;236.07;78.10;;;;;;;;;;5065873;28;20206;-65
2021/12/13 20:36:20;;;;;;;232.38;80.05;;;;;;;;;;5056650;28;20033;-64
2021/12/13 20:38:49;;;;;;;261.50;86.38;;;;;;;;;;5084570;28;20474;-66
2021/12/13 20:41:19;;;;;;;279.80;93.45;;;;;;;;;;5069290;28;20028;-64
2021/12/13 20:43:53;;;;;;;303.92;110.10;;;;;;;;;;5053201;28;20025;-65
2021/12/13 20:46:32;;;;;;;280.58;110.50;;;;;;;;;;5058845;28;20016;-65
2021/12/13 20:49:05;;;;;;;320.13;118.85;;;;;;;;;;5090531;28;20032;-64
2021/12/13 20:51:40;;;;;;;344.58;115.60;;;;;;;;;;5059797;28;20025;-65
2021/12/13 20:54:06;;;;;;;238.32;91.45;;;;;;;;;;5060870;28;20033;-63
2021/12/13 20:56:33;;;;;;;216.60;85.68;;;;;;;;;;5072665;28;20043;-64
2021/12/13 20:58:59;;;;;;;201.85;84.68;;;;;;;;;;5057472;28;20518;-62
2021/12/13 21:01:27;;;;;;;175.80;72.72;;;;;;;;;;5053413;28;20066;-63
2021/12/13 21:03:53;;;;;;;162.10;70.97;;;;;;;;;;5069039;28;20048;-65
2021/12/13 21:06:42;;;;;;;171.70;73.80;;;;;;;;;;5068758;28;20063;-65
2021/12/13 21:09:13;;;;;;;174.25;65.75;;;;;;;;;;5059353;28;20112;-64
2021/12/13 21:11:49;;;;;;;239.63;78.18;;;;;;;;;;5068042;28;20024;-64
2021/12/13 21:14:16;;;;;;;307.45;70.20;;;;;;;;;;5072234;28;20024;-64
2021/12/13 21:16:54;;;;;;;264.00;67.57;;;;;;;;;;5069892;28;20112;-64
2021/12/13 21:19:28;;;;;;;257.83;63.35;;;;;;;;;;5068133;28;20032;-64
2021/12/13 21:21:56;;;;;;;241.35;60.28;;;;;;;;;;5069330;28;20394;-63
2021/12/13 21:24:27;;;;;;;273.70;62.25;;;;;;;;;;5066990;28;20082;-63
2021/12/13 21:26:55;;;;;;;176.50;58.28;;;;;;;;;;5065656;28;20425;-64
2021/12/13 21:29:23;;;;;;;162.75;58.72;;;;;;;;;;5066440;28;20077;-65
2021/12/13 21:31:56;;;;;;;138.82;52.75;;;;;;;;;;5068405;28;20479;-64
2021/12/13 21:34:35;;;;;;;95.63;47.33;;;;;;;;;;5066432;28;20752;-65
2021/12/13 21:39:47;;;;;;;190.10;51.88;;;;;;;;;;5068687;28;20031;-64
2021/12/13 21:42:40;;;;;;;276.02;52.90;;;;;;;;;;5069416;28;20467;-65
2021/12/13 21:45:20;;;;;;;312.10;58.45;;;;;;;;;;5066865;28;20099;-65
2021/12/13 21:47:54;;;;;;;233.40;48.70;;;;;;;;;;5068194;28;20040;-65
2021/12/13 21:50:22;;;;;;;208.65;47.92;;;;;;;;;;5070019;28;20146;-66
2021/12/13 21:52:59;;;;;;;215.02;41.60;;;;;;;;;;5071127;28;20040;-65
2021/12/13 21:55:32;;;;;;;129.35;37.13;;;;;;;;;;5070492;28;20053;-65
2021/12/13 21:58:05;;;;;;;121.20;34.17;;;;;;;;;;5067117;28;20685;-64
2021/12/13 22:00:36;;;;;;;75.93;26.48;;;;;;;;;;5064199;28;20055;-65
2021/12/13 22:03:02;;;;;;;59.80;26.13;;;;;;;;;;5081907;28;20047;-64
2021/12/13 22:05:35;;;;;;;65.47;27.75;;;;;;;;;;5082767;28;20012;-65
2021/12/13 22:08:21;;;;;;;58.55;25.73;;;;;;;;;;5068509;28;20054;-65
2021/12/13 22:10:58;;;;;;;56.17;26.17;;;;;;;;;;5060225;28;20396;-65
2021/12/13 22:13:26;;;;;;;49.38;23.42;;;;;;;;;;5067026;28;20094;-64
2021/12/13 22:15:53;;;;;;;48.33;23.35;;;;;;;;;;5058480;28;20509;-65
2021/12/13 22:18:21;;;;;;;47.05;22.17;;;;;;;;;;5061138;28;20017;-65
2021/12/13 22:20:49;;;;;;;52.83;22.83;;;;;;;;;;5060061;28;20112;-64
2021/12/13 22:23:17;;;;;;;43.03;20.15;;;;;;;;;;5069862;28;20120;-65
2021/12/13 22:25:48;;;;;;;66.80;24.10;;;;;;;;;;5069381;28;20433;-64
2021/12/13 22:28:15;;;;;;;77.43;27.02;;;;;;;;;;5092282;28;20068;-64
2021/12/13 22:30:46;;;;;;;86.35;27.30;;;;;;;;;;5072954;28;20029;-66
2021/12/13 22:33:13;;;;;;;119.90;32.08;;;;;;;;;;5089410;28;20028;-66
2021/12/13 22:35:39;;;;;;;144.18;34.25;;;;;;;;;;5086833;28;20027;-63
2021/12/13 22:38:09;;;;;;;116.72;33.95;;;;;;;;;;5071929;28;20474;-66
2021/12/13 22:40:40;;;;;;;103.85;32.20;;;;;;;;;;5066708;28;20020;-66
2021/12/13 22:43:06;;;;;;;133.25;34.85;;;;;;;;;;5053874;28;20179;-66
2021/12/13 22:45:32;;;;;;;97.30;30.30;;;;;;;;;;5063948;28;20111;-65
2021/12/13 22:47:59;;;;;;;117.85;33.85;;;;;;;;;;5063866;28;20444;-66
2021/12/13 22:50:32;;;;;;;181.32;40.00;;;;;;;;;;5060275;28;20373;-67
2021/12/13 22:53:00;;;;;;;140.43;35.13;;;;;;;;;;5062625;28;20179;-65
2021/12/13 22:55:27;;;;;;;91.60;33.00;;;;;;;;;;5060191;28;20052;-64
2021/12/13 22:57:53;;;;;;;87.70;30.83;;;;;;;;;;5075805;28;20039;-64
2021/12/13 23:00:28;;;;;;;101.50;32.63;;;;;;;;;;5075963;28;20025;-64
